KLCI/LCI METAR and TAF weather

Enter ICAO airport designator
Station Type Date Time Source
KLCI METAR 2022/06/30 01:56 UTC NOAA

KLCI 300156Z AUTO 24011KT 10SM -RA FEW070 BKN090 OVC110 22/12 A3014 RMK AO2 LTG DSNT N AND NW RAB56 SLP205 P0000 T02170117


Station Type Date Time Source
KLCI Decoded METAR 2022/06/30 01:56 UTC NOAA

Laconia, Laconia Municipal Airport, NH, United States (KLCI) 43-34N 071-25W
Jun 29, 2022 - 09:56 PM EDT / 2022.06.30 0156 UTC
Wind: from the WSW (240 degrees) at 13 MPH (11 KT):0
Visibility: 10 mile(s):0
Sky conditions: overcast
Weather: light rain; Lightning observed
Precipitation last hour: A trace
Temperature: 71.1 F (21.7 C)
Dew Point: 53.1 F (11.7 C)
Relative Humidity: 52%
Pressure (altimeter): 30.14 in. Hg (1020 hPa)
ob: KLCI 300156Z AUTO 24011KT 10SM -RA FEW070 BKN090 OVC110 22/12 A3014 RMK AO2 LTG DSNT N AND NW RAB56 SLP205 P0000 T02170117
cycle: 2

Station Type Date Time Source
KLCI TAF UTC NOAA

Error!

Example: see airport list